Terminal Aerodrome Forecast
Issued by NWS Wichita, KS

Home | Current Version | Previous Version | Graphics & Text | Print | Product List | Glossary On
Versions: 1 2 3 4 5 6 7 8 9 10 11 12 13 14 15 16
000
FTUS43 KICT 250320 AAA
TAFICT
TAF AMD
KICT 250320Z 2503/2524 18008KT P6SM SKC
     FM251200 18012KT P6SM SCT250
     FM251500 18020G30KT P6SM SCT250=

USA.gov is the U.S. government's official web portal to all federal, state and local government web resources and services.